sensor_id;sensor_type;location;lat;lon;timestamp;pressure;altitude;pressure_sealevel;temperature;humidity
71638;BME280;59485;43.542;-5.676;2023-04-06T00:01:37;102015.38;;;8.65;100.00
71638;BME280;59485;43.542;-5.676;2023-04-06T00:04:02;102019.13;;;8.64;100.00
71638;BME280;59485;43.542;-5.676;2023-04-06T00:06:28;102007.91;;;8.68;100.00
71638;BME280;59485;43.542;-5.676;2023-04-06T00:08:53;102005.16;;;8.68;100.00
71638;BME280;59485;43.542;-5.676;2023-04-06T00:11:19;101998.13;;;8.65;100.00
71638;BME280;59485;43.542;-5.676;2023-04-06T00:13:45;101998.13;;;8.55;100.00
71638;BME280;59485;43.542;-5.676;2023-04-06T00:16:10;102000.28;;;8.52;100.00
71638;BME280;59485;43.542;-5.676;2023-04-06T00:18:36;101996.69;;;8.51;100.00
71638;BME280;59485;43.542;-5.676;2023-04-06T00:21:03;101984.75;;;8.52;100.00
71638;BME280;59485;43.542;-5.676;2023-04-06T00:23:28;101973.84;;;8.52;100.00
71638;BME280;59485;43.542;-5.676;2023-04-06T00:25:54;101976.72;;;8.51;100.00
71638;BME280;59485;43.542;-5.676;2023-04-06T00:28:20;101978.16;;;8.45;100.00
71638;BME280;59485;43.542;-5.676;2023-04-06T00:30:50;101979.31;;;8.43;100.00
71638;BME280;59485;43.542;-5.676;2023-04-06T00:33:21;101979.31;;;8.43;100.00
71638;BME280;59485;43.542;-5.676;2023-04-06T00:35:46;101976.03;;;8.39;100.00
71638;BME280;59485;43.542;-5.676;2023-04-06T00:38:13;101976.59;;;8.33;100.00
71638;BME280;59485;43.542;-5.676;2023-04-06T00:40:39;101976.75;;;8.22;100.00
71638;BME280;59485;43.542;-5.676;2023-04-06T00:43:07;101982.78;;;8.16;100.00
71638;BME280;59485;43.542;-5.676;2023-04-06T00:45:36;101973.44;;;8.18;100.00
71638;BME280;59485;43.542;-5.676;2023-04-06T00:48:03;101969.44;;;8.13;100.00
71638;BME280;59485;43.542;-5.676;2023-04-06T00:50:29;101968.13;;;8.07;100.00
71638;BME280;59485;43.542;-5.676;2023-04-06T00:52:54;101965.56;;;7.96;100.00
71638;BME280;59485;43.542;-5.676;2023-04-06T00:55:20;101967.97;;;7.89;100.00
71638;BME280;59485;43.542;-5.676;2023-04-06T00:57:46;101965.13;;;7.91;100.00
71638;BME280;59485;43.542;-5.676;2023-04-06T01:00:13;101962.09;;;7.84;100.00
71638;BME280;59485;43.542;-5.676;2023-04-06T01:02:39;101965.13;;;7.81;100.00
71638;BME280;59485;43.542;-5.676;2023-04-06T01:05:05;101966.41;;;7.77;100.00
71638;BME280;59485;43.542;-5.676;2023-04-06T01:07:31;101974.59;;;7.77;100.00
71638;BME280;59485;43.542;-5.676;2023-04-06T01:09:58;101979.47;;;7.74;100.00
71638;BME280;59485;43.542;-5.676;2023-04-06T01:12:24;101979.19;;;7.67;100.00
71638;BME280;59485;43.542;-5.676;2023-04-06T01:14:50;101985.78;;;7.65;100.00
71638;BME280;59485;43.542;-5.676;2023-04-06T01:17:16;101993.22;;;7.53;100.00
71638;BME280;59485;43.542;-5.676;2023-04-06T01:19:41;101992.66;;;7.49;100.00
71638;BME280;59485;43.542;-5.676;2023-04-06T01:22:07;101996.13;;;7.51;100.00
71638;BME280;59485;43.542;-5.676;2023-04-06T01:24:32;101996.22;;;7.40;100.00
71638;BME280;59485;43.542;-5.676;2023-04-06T01:26:58;101996.09;;;7.42;100.00
71638;BME280;59485;43.542;-5.676;2023-04-06T01:29:24;101989.78;;;7.41;100.00
71638;BME280;59485;43.542;-5.676;2023-04-06T01:31:50;101979.13;;;7.38;100.00
71638;BME280;59485;43.542;-5.676;2023-04-06T01:34:15;101983.72;;;7.38;100.00
71638;BME280;59485;43.542;-5.676;2023-04-06T01:36:41;101985.72;;;7.36;100.00
71638;BME280;59485;43.542;-5.676;2023-04-06T01:39:07;101980.88;;;7.39;100.00
71638;BME280;59485;43.542;-5.676;2023-04-06T01:41:33;101977.28;;;7.39;100.00
71638;BME280;59485;43.542;-5.676;2023-04-06T01:43:58;101980.00;;;7.39;100.00
71638;BME280;59485;43.542;-5.676;2023-04-06T01:46:24;101974.94;;;7.34;100.00
71638;BME280;59485;43.542;-5.676;2023-04-06T01:48:49;101971.53;;;7.32;100.00
71638;BME280;59485;43.542;-5.676;2023-04-06T01:51:15;101978.41;;;7.36;100.00
71638;BME280;59485;43.542;-5.676;2023-04-06T01:53:41;101978.13;;;7.39;100.00
71638;BME280;59485;43.542;-5.676;2023-04-06T01:56:06;101975.41;;;7.39;100.00
71638;BME280;59485;43.542;-5.676;2023-04-06T01:58:32;101977.13;;;7.40;100.00
71638;BME280;59485;43.542;-5.676;2023-04-06T02:00:57;101969.97;;;7.39;100.00
71638;BME280;59485;43.542;-5.676;2023-04-06T02:03:23;101968.22;;;7.38;100.00
71638;BME280;59485;43.542;-5.676;2023-04-06T02:05:48;101967.50;;;7.36;100.00
71638;BME280;59485;43.542;-5.676;2023-04-06T02:08:14;101965.63;;;7.37;100.00
71638;BME280;59485;43.542;-5.676;2023-04-06T02:10:40;101961.19;;;7.36;100.00
71638;BME280;59485;43.542;-5.676;2023-04-06T02:13:05;101955.56;;;7.28;100.00
71638;BME280;59485;43.542;-5.676;2023-04-06T02:15:31;101954.31;;;7.32;100.00
71638;BME280;59485;43.542;-5.676;2023-04-06T02:17:57;101948.41;;;7.36;100.00
71638;BME280;59485;43.542;-5.676;2023-04-06T02:20:22;101943.81;;;7.37;100.00
71638;BME280;59485;43.542;-5.676;2023-04-06T02:22:48;101933.34;;;7.32;100.00
71638;BME280;59485;43.542;-5.676;2023-04-06T02:25:14;101933.63;;;7.39;100.00
71638;BME280;59485;43.542;-5.676;2023-04-06T02:27:39;101928.75;;;7.33;100.00
71638;BME280;59485;43.542;-5.676;2023-04-06T02:30:05;101918.97;;;7.30;100.00
71638;BME280;59485;43.542;-5.676;2023-04-06T02:32:31;101921.72;;;7.30;100.00
71638;BME280;59485;43.542;-5.676;2023-04-06T02:34:56;101908.81;;;7.32;100.00
71638;BME280;59485;43.542;-5.676;2023-04-06T02:37:22;101905.63;;;7.27;100.00
71638;BME280;59485;43.542;-5.676;2023-04-06T02:39:49;101906.06;;;7.32;100.00
71638;BME280;59485;43.542;-5.676;2023-04-06T02:42:15;101903.34;;;7.32;100.00
71638;BME280;59485;43.542;-5.676;2023-04-06T02:44:41;101899.88;;;7.21;100.00
71638;BME280;59485;43.542;-5.676;2023-04-06T02:47:07;101902.31;;;7.14;100.00
71638;BME280;59485;43.542;-5.676;2023-04-06T02:49:32;101908.16;;;7.09;100.00
71638;BME280;59485;43.542;-5.676;2023-04-06T02:51:58;101905.88;;;7.05;100.00
71638;BME280;59485;43.542;-5.676;2023-04-06T02:54:24;101909.16;;;7.08;100.00
71638;BME280;59485;43.542;-5.676;2023-04-06T02:56:49;101910.63;;;7.12;100.00
71638;BME280;59485;43.542;-5.676;2023-04-06T02:59:15;101915.63;;;7.07;100.00
71638;BME280;59485;43.542;-5.676;2023-04-06T03:01:40;101920.94;;;7.09;100.00
71638;BME280;59485;43.542;-5.676;2023-04-06T03:04:06;101921.78;;;7.09;100.00
71638;BME280;59485;43.542;-5.676;2023-04-06T03:06:31;101925.50;;;6.99;100.00
71638;BME280;59485;43.542;-5.676;2023-04-06T03:08:57;101925.75;;;6.86;100.00
71638;BME280;59485;43.542;-5.676;2023-04-06T03:11:22;101919.53;;;6.74;100.00
71638;BME280;59485;43.542;-5.676;2023-04-06T03:13:48;101916.09;;;6.72;100.00
71638;BME280;59485;43.542;-5.676;2023-04-06T03:16:13;101914.34;;;6.62;100.00
71638;BME280;59485;43.542;-5.676;2023-04-06T03:18:39;101909.72;;;6.53;100.00
71638;BME280;59485;43.542;-5.676;2023-04-06T03:21:05;101925.31;;;6.51;100.00
71638;BME280;59485;43.542;-5.676;2023-04-06T03:23:30;101928.31;;;6.48;100.00
71638;BME280;59485;43.542;-5.676;2023-04-06T03:25:56;101913.81;;;6.47;100.00
71638;BME280;59485;43.542;-5.676;2023-04-06T03:28:21;101918.69;;;6.44;100.00
71638;BME280;59485;43.542;-5.676;2023-04-06T03:30:47;101918.69;;;6.44;100.00
71638;BME280;59485;43.542;-5.676;2023-04-06T03:33:12;101918.53;;;6.45;100.00
71638;BME280;59485;43.542;-5.676;2023-04-06T03:35:38;101916.69;;;6.46;100.00
71638;BME280;59485;43.542;-5.676;2023-04-06T03:38:04;101905.66;;;6.47;100.00
71638;BME280;59485;43.542;-5.676;2023-04-06T03:40:30;101909.38;;;6.46;100.00
71638;BME280;59485;43.542;-5.676;2023-04-06T03:42:56;101910.72;;;6.52;100.00
71638;BME280;59485;43.542;-5.676;2023-04-06T03:45:22;101908.13;;;6.50;100.00
71638;BME280;59485;43.542;-5.676;2023-04-06T03:47:47;101909.72;;;6.53;100.00
71638;BME280;59485;43.542;-5.676;2023-04-06T03:50:13;101916.59;;;6.57;100.00
71638;BME280;59485;43.542;-5.676;2023-04-06T03:52:38;101911.69;;;6.51;100.00
71638;BME280;59485;43.542;-5.676;2023-04-06T03:55:04;101916.84;;;6.54;100.00
71638;BME280;59485;43.542;-5.676;2023-04-06T03:57:30;101934.94;;;6.55;100.00
71638;BME280;59485;43.542;-5.676;2023-04-06T03:59:55;101920.19;;;6.57;100.00
71638;BME280;59485;43.542;-5.676;2023-04-06T04:02:21;101925.91;;;6.54;100.00
71638;BME280;59485;43.542;-5.676;2023-04-06T04:04:47;101927.75;;;6.54;100.00
71638;BME280;59485;43.542;-5.676;2023-04-06T04:07:12;101925.63;;;6.57;100.00
71638;BME280;59485;43.542;-5.676;2023-04-06T04:09:38;101942.66;;;6.50;100.00
71638;BME280;59485;43.542;-5.676;2023-04-06T04:12:03;101934.94;;;6.55;100.00
71638;BME280;59485;43.542;-5.676;2023-04-06T04:14:29;101939.38;;;6.56;100.00
71638;BME280;59485;43.542;-5.676;2023-04-06T04:16:55;101942.84;;;6.58;100.00
71638;BME280;59485;43.542;-5.676;2023-04-06T04:19:20;101943.22;;;6.53;100.00
71638;BME280;59485;43.542;-5.676;2023-04-06T04:21:46;101946.69;;;6.55;100.00
71638;BME280;59485;43.542;-5.676;2023-04-06T04:24:12;101947.56;;;6.56;100.00
71638;BME280;59485;43.542;-5.676;2023-04-06T04:26:38;101943.97;;;6.55;100.00
71638;BME280;59485;43.542;-5.676;2023-04-06T04:29:07;101948.09;;;6.50;100.00
71638;BME280;59485;43.542;-5.676;2023-04-06T04:31:32;101957.53;;;6.46;100.00
71638;BME280;59485;43.542;-5.676;2023-04-06T04:33:59;101954.81;;;6.46;100.00
71638;BME280;59485;43.542;-5.676;2023-04-06T04:36:25;101963.28;;;6.43;100.00
71638;BME280;59485;43.542;-5.676;2023-04-06T04:38:54;101961.78;;;6.38;100.00
71638;BME280;59485;43.542;-5.676;2023-04-06T04:41:20;101960.06;;;6.37;100.00
71638;BME280;59485;43.542;-5.676;2023-04-06T04:43:45;101966.19;;;6.30;100.00
71638;BME280;59485;43.542;-5.676;2023-04-06T04:46:11;101972.50;;;6.30;100.00
71638;BME280;59485;43.542;-5.676;2023-04-06T04:48:36;101966.59;;;6.25;100.00
71638;BME280;59485;43.542;-5.676;2023-04-06T04:51:03;101975.28;;;6.19;100.00
71638;BME280;59485;43.542;-5.676;2023-04-06T04:53:29;101985.59;;;6.16;100.00
71638;BME280;59485;43.542;-5.676;2023-04-06T04:55:55;101983.00;;;6.14;100.00
71638;BME280;59485;43.542;-5.676;2023-04-06T04:58:20;101986.56;;;6.15;100.00
71638;BME280;59485;43.542;-5.676;2023-04-06T05:00:46;101980.53;;;6.11;100.00
71638;BME280;59485;43.542;-5.676;2023-04-06T05:03:18;101987.16;;;6.18;100.00
71638;BME280;59485;43.542;-5.676;2023-04-06T05:05:45;101990.97;;;6.06;100.00
71638;BME280;59485;43.542;-5.676;2023-04-06T05:08:14;101994.41;;;6.08;100.00
71638;BME280;59485;43.542;-5.676;2023-04-06T05:10:40;101999.91;;;5.97;100.00
71638;BME280;59485;43.542;-5.676;2023-04-06T05:13:06;102008.53;;;6.02;100.00
71638;BME280;59485;43.542;-5.676;2023-04-06T05:15:31;102010.50;;;6.00;100.00
71638;BME280;59485;43.542;-5.676;2023-04-06T05:18:00;102004.72;;;5.93;100.00
71638;BME280;59485;43.542;-5.676;2023-04-06T05:20:25;102015.38;;;5.96;100.00
71638;BME280;59485;43.542;-5.676;2023-04-06T05:22:51;102012.03;;;5.93;100.00
71638;BME280;59485;43.542;-5.676;2023-04-06T05:25:16;102019.22;;;5.94;100.00
71638;BME280;59485;43.542;-5.676;2023-04-06T05:27:42;102030.22;;;5.92;100.00
71638;BME280;59485;43.542;-5.676;2023-04-06T05:30:08;102030.84;;;5.85;100.00
71638;BME280;59485;43.542;-5.676;2023-04-06T05:32:34;102038.88;;;5.86;100.00
71638;BME280;59485;43.542;-5.676;2023-04-06T05:34:59;102039.25;;;5.82;100.00
71638;BME280;59485;43.542;-5.676;2023-04-06T05:37:25;102050.00;;;5.83;100.00
71638;BME280;59485;43.542;-5.676;2023-04-06T05:39:50;102063.25;;;5.77;100.00
71638;BME280;59485;43.542;-5.676;2023-04-06T05:42:16;102060.03;;;5.83;100.00
71638;BME280;59485;43.542;-5.676;2023-04-06T05:44:42;102063.47;;;5.85;100.00
71638;BME280;59485;43.542;-5.676;2023-04-06T05:47:07;102064.13;;;5.77;100.00
71638;BME280;59485;43.542;-5.676;2023-04-06T05:49:33;102066.09;;;5.75;100.00
71638;BME280;59485;43.542;-5.676;2023-04-06T05:51:59;102067.97;;;5.75;100.00
71638;BME280;59485;43.542;-5.676;2023-04-06T05:54:25;102070.81;;;5.73;100.00
71638;BME280;59485;43.542;-5.676;2023-04-06T05:56:51;102072.19;;;5.68;100.00
71638;BME280;59485;43.542;-5.676;2023-04-06T05:59:16;102079.59;;;5.65;100.00
71638;BME280;59485;43.542;-5.676;2023-04-06T06:01:42;102080.34;;;5.68;100.00
71638;BME280;59485;43.542;-5.676;2023-04-06T06:04:07;102082.81;;;5.71;100.00
71638;BME280;59485;43.542;-5.676;2023-04-06T06:06:33;102089.59;;;5.76;100.00
71638;BME280;59485;43.542;-5.676;2023-04-06T06:08:59;102087.28;;;5.72;100.00
71638;BME280;59485;43.542;-5.676;2023-04-06T06:11:26;102094.19;;;5.76;100.00
71638;BME280;59485;43.542;-5.676;2023-04-06T06:13:52;102089.13;;;5.71;100.00
71638;BME280;59485;43.542;-5.676;2023-04-06T06:16:18;102095.66;;;5.80;100.00
71638;BME280;59485;43.542;-5.676;2023-04-06T06:18:44;102101.09;;;5.80;100.00
71638;BME280;59485;43.542;-5.676;2023-04-06T06:21:10;102098.38;;;5.80;100.00
71638;BME280;59485;43.542;-5.676;2023-04-06T06:23:38;102097.25;;;5.82;100.00
71638;BME280;59485;43.542;-5.676;2023-04-06T06:26:04;102088.38;;;5.80;100.00
71638;BME280;59485;43.542;-5.676;2023-04-06T06:28:30;102094.28;;;5.85;100.00
71638;BME280;59485;43.542;-5.676;2023-04-06T06:30:55;102100.38;;;5.89;100.00
71638;BME280;59485;43.542;-5.676;2023-04-06T06:33:21;102114.97;;;5.88;100.00
71638;BME280;59485;43.542;-5.676;2023-04-06T06:35:46;102118.56;;;5.88;100.00
71638;BME280;59485;43.542;-5.676;2023-04-06T06:38:12;102112.84;;;5.91;100.00
71638;BME280;59485;43.542;-5.676;2023-04-06T06:40:39;102114.19;;;5.97;100.00
71638;BME280;59485;43.542;-5.676;2023-04-06T06:43:05;102121.84;;;6.03;100.00
71638;BME280;59485;43.542;-5.676;2023-04-06T06:45:30;102126.06;;;6.07;100.00
71638;BME280;59485;43.542;-5.676;2023-04-06T06:47:56;102113.53;;;6.16;100.00
71638;BME280;59485;43.542;-5.676;2023-04-06T06:50:21;102124.75;;;6.22;100.00
71638;BME280;59485;43.542;-5.676;2023-04-06T06:52:47;102130.66;;;6.27;100.00
71638;BME280;59485;43.542;-5.676;2023-04-06T06:55:13;102130.28;;;6.32;100.00
71638;BME280;59485;43.542;-5.676;2023-04-06T06:57:38;102137.56;;;6.43;100.00
71638;BME280;59485;43.542;-5.676;2023-04-06T07:00:05;102145.66;;;6.54;100.00
71638;BME280;59485;43.542;-5.676;2023-04-06T07:02:33;102139.78;;;6.69;100.00
71638;BME280;59485;43.542;-5.676;2023-04-06T07:04:59;102134.22;;;6.71;100.00
71638;BME280;59485;43.542;-5.676;2023-04-06T07:07:24;102136.59;;;6.85;100.00
71638;BME280;59485;43.542;-5.676;2023-04-06T07:09:50;102127.16;;;6.89;100.00
71638;BME280;59485;43.542;-5.676;2023-04-06T07:12:15;102121.19;;;6.95;100.00
71638;BME280;59485;43.542;-5.676;2023-04-06T07:14:41;102126.94;;;7.02;100.00
71638;BME280;59485;43.542;-5.676;2023-04-06T07:17:07;102122.09;;;7.05;100.00
71638;BME280;59485;43.542;-5.676;2023-04-06T07:19:38;102122.56;;;7.10;100.00
71638;BME280;59485;43.542;-5.676;2023-04-06T07:22:04;102115.69;;;7.16;100.00
71638;BME280;59485;43.542;-5.676;2023-04-06T07:24:30;102115.16;;;7.22;100.00
71638;BME280;59485;43.542;-5.676;2023-04-06T07:26:55;102121.09;;;7.37;100.00
71638;BME280;59485;43.542;-5.676;2023-04-06T07:29:21;102119.03;;;7.50;100.00
71638;BME280;59485;43.542;-5.676;2023-04-06T07:31:48;102129.00;;;7.70;100.00
71638;BME280;59485;43.542;-5.676;2023-04-06T07:34:14;102118.53;;;7.75;100.00
71638;BME280;59485;43.542;-5.676;2023-04-06T07:36:40;102121.84;;;7.88;100.00
71638;BME280;59485;43.542;-5.676;2023-04-06T07:39:06;102120.47;;;8.04;100.00
71638;BME280;59485;43.542;-5.676;2023-04-06T07:41:32;102127.66;;;8.14;100.00
71638;BME280;59485;43.542;-5.676;2023-04-06T07:43:57;102127.09;;;8.20;100.00
71638;BME280;59485;43.542;-5.676;2023-04-06T07:46:23;102125.41;;;8.29;100.00
71638;BME280;59485;43.542;-5.676;2023-04-06T07:48:48;102127.00;;;8.41;100.00
71638;BME280;59485;43.542;-5.676;2023-04-06T07:51:15;102123.41;;;8.50;100.00
71638;BME280;59485;43.542;-5.676;2023-04-06T07:53:44;102130.75;;;8.59;100.00
71638;BME280;59485;43.542;-5.676;2023-04-06T07:56:09;102111.78;;;8.68;100.00
71638;BME280;59485;43.542;-5.676;2023-04-06T07:58:35;102107.59;;;8.73;100.00
71638;BME280;59485;43.542;-5.676;2023-04-06T08:01:01;102106.56;;;8.84;100.00
71638;BME280;59485;43.542;-5.676;2023-04-06T08:03:27;102100.78;;;8.87;100.00
71638;BME280;59485;43.542;-5.676;2023-04-06T08:05:53;102107.25;;;8.95;100.00
71638;BME280;59485;43.542;-5.676;2023-04-06T08:08:19;102106.53;;;9.03;100.00
71638;BME280;59485;43.542;-5.676;2023-04-06T08:10:47;102103.19;;;9.09;100.00
71638;BME280;59485;43.542;-5.676;2023-04-06T08:13:13;102105.03;;;9.18;100.00
71638;BME280;59485;43.542;-5.676;2023-04-06T08:15:39;102101.56;;;9.26;100.00
71638;BME280;59485;43.542;-5.676;2023-04-06T08:18:05;102097.63;;;9.38;100.00
71638;BME280;59485;43.542;-5.676;2023-04-06T08:20:30;102098.28;;;9.50;100.00
71638;BME280;59485;43.542;-5.676;2023-04-06T08:22:56;102086.84;;;9.64;100.00
71638;BME280;59485;43.542;-5.676;2023-04-06T08:25:22;102091.28;;;9.92;100.00
71638;BME280;59485;43.542;-5.676;2023-04-06T08:27:47;102086.84;;;10.09;100.00
71638;BME280;59485;43.542;-5.676;2023-04-06T08:30:13;102091.56;;;10.16;100.00
71638;BME280;59485;43.542;-5.676;2023-04-06T08:32:40;102088.78;;;10.26;100.00
71638;BME280;59485;43.542;-5.676;2023-04-06T08:35:07;102083.44;;;10.25;100.00
71638;BME280;59485;43.542;-5.676;2023-04-06T08:37:32;102075.69;;;10.20;100.00
71638;BME280;59485;43.542;-5.676;2023-04-06T08:39:58;102071.78;;;10.40;100.00
71638;BME280;59485;43.542;-5.676;2023-04-06T08:42:25;102062.38;;;10.43;100.00
71638;BME280;59485;43.542;-5.676;2023-04-06T08:44:54;102059.34;;;10.46;100.00
71638;BME280;59485;43.542;-5.676;2023-04-06T08:47:20;102061.56;;;10.68;100.00
71638;BME280;59485;43.542;-5.676;2023-04-06T08:49:46;102057.44;;;10.90;100.00
71638;BME280;59485;43.542;-5.676;2023-04-06T08:52:13;102058.66;;;10.96;100.00
71638;BME280;59485;43.542;-5.676;2023-04-06T08:54:40;102051.44;;;10.95;100.00
71638;BME280;59485;43.542;-5.676;2023-04-06T08:57:07;102055.66;;;11.07;100.00
71638;BME280;59485;43.542;-5.676;2023-04-06T08:59:33;102050.63;;;11.02;100.00
71638;BME280;59485;43.542;-5.676;2023-04-06T09:02:03;102045.38;;;11.09;100.00
71638;BME280;59485;43.542;-5.676;2023-04-06T09:04:29;102041.81;;;11.16;100.00
71638;BME280;59485;43.542;-5.676;2023-04-06T09:06:57;102034.25;;;11.18;100.00
71638;BME280;59485;43.542;-5.676;2023-04-06T09:09:23;102035.88;;;11.29;100.00
71638;BME280;59485;43.542;-5.676;2023-04-06T09:11:51;102025.78;;;11.38;100.00
71638;BME280;59485;43.542;-5.676;2023-04-06T09:14:33;102035.94;;;11.45;100.00
71638;BME280;59485;43.542;-5.676;2023-04-06T09:16:59;102019.47;;;11.45;100.00
71638;BME280;59485;43.542;-5.676;2023-04-06T09:19:25;102019.53;;;11.53;100.00
71638;BME280;59485;43.542;-5.676;2023-04-06T09:22:04;102020.19;;;11.55;100.00
71638;BME280;59485;43.542;-5.676;2023-04-06T09:24:47;102011.16;;;11.63;100.00
71638;BME280;59485;43.542;-5.676;2023-04-06T09:27:14;102007.88;;;11.68;100.00
71638;BME280;59485;43.542;-5.676;2023-04-06T09:29:41;102003.59;;;11.73;100.00
71638;BME280;59485;43.542;-5.676;2023-04-06T09:32:08;102004.69;;;11.80;100.00
71638;BME280;59485;43.542;-5.676;2023-04-06T09:34:39;102005.38;;;11.90;100.00
71638;BME280;59485;43.542;-5.676;2023-04-06T09:37:18;101998.38;;;11.96;100.00
71638;BME280;59485;43.542;-5.676;2023-04-06T09:39:45;101993.19;;;12.01;100.00
71638;BME280;59485;43.542;-5.676;2023-04-06T09:42:31;101991.31;;;12.10;100.00
71638;BME280;59485;43.542;-5.676;2023-04-06T09:44:56;101980.31;;;12.10;100.00
71638;BME280;59485;43.542;-5.676;2023-04-06T09:47:22;101985.50;;;12.13;100.00
71638;BME280;59485;43.542;-5.676;2023-04-06T09:49:50;101991.16;;;12.19;100.00
71638;BME280;59485;43.542;-5.676;2023-04-06T09:52:19;101993.91;;;12.27;100.00
71638;BME280;59485;43.542;-5.676;2023-04-06T09:54:49;101985.66;;;12.27;100.00
71638;BME280;59485;43.542;-5.676;2023-04-06T10:00:07;101983.78;;;12.28;100.00
71638;BME280;59485;43.542;-5.676;2023-04-06T10:05:22;101991.53;;;12.16;100.00
71638;BME280;59485;43.542;-5.676;2023-04-06T10:07:52;101991.69;;;12.15;100.00
71638;BME280;59485;43.542;-5.676;2023-04-06T10:10:19;101999.06;;;12.22;100.00
71638;BME280;59485;43.542;-5.676;2023-04-06T10:12:47;101993.03;;;12.19;100.00
71638;BME280;59485;43.542;-5.676;2023-04-06T10:15:12;101995.97;;;12.17;100.00
71638;BME280;59485;43.542;-5.676;2023-04-06T10:17:38;101993.41;;;12.08;100.00
71638;BME280;59485;43.542;-5.676;2023-04-06T10:22:44;101999.25;;;12.13;100.00
71638;BME280;59485;43.542;-5.676;2023-04-06T10:25:16;102008.34;;;12.13;100.00
71638;BME280;59485;43.542;-5.676;2023-04-06T10:27:42;102013.16;;;12.19;100.00
71638;BME280;59485;43.542;-5.676;2023-04-06T10:30:07;102017.63;;;12.12;100.00
71638;BME280;59485;43.542;-5.676;2023-04-06T10:32:37;102018.66;;;12.19;100.00
71638;BME280;59485;43.542;-5.676;2023-04-06T10:35:10;102019.19;;;12.23;100.00
71638;BME280;59485;43.542;-5.676;2023-04-06T10:37:49;102027.75;;;12.28;100.00
71638;BME280;59485;43.542;-5.676;2023-04-06T10:40:38;102033.78;;;12.31;100.00
71638;BME280;59485;43.542;-5.676;2023-04-06T10:43:12;102035.69;;;12.39;100.00
71638;BME280;59485;43.542;-5.676;2023-04-06T10:45:39;102031.91;;;12.24;100.00
71638;BME280;59485;43.542;-5.676;2023-04-06T10:50:41;102042.72;;;12.25;100.00
71638;BME280;59485;43.542;-5.676;2023-04-06T10:53:07;102035.50;;;12.24;100.00
71638;BME280;59485;43.542;-5.676;2023-04-06T10:55:33;102045.13;;;12.20;100.00
71638;BME280;59485;43.542;-5.676;2023-04-06T10:57:59;102043.75;;;12.24;100.00
71638;BME280;59485;43.542;-5.676;2023-04-06T11:00:25;102041.88;;;12.33;100.00
71638;BME280;59485;43.542;-5.676;2023-04-06T11:02:51;102052.00;;;12.40;100.00
71638;BME280;59485;43.542;-5.676;2023-04-06T11:05:17;102051.84;;;12.50;100.00
71638;BME280;59485;43.542;-5.676;2023-04-06T11:07:44;102055.09;;;12.46;100.00
71638;BME280;59485;43.542;-5.676;2023-04-06T11:10:10;102055.09;;;12.54;100.00
71638;BME280;59485;43.542;-5.676;2023-04-06T11:12:35;102047.91;;;12.61;100.00
71638;BME280;59485;43.542;-5.676;2023-04-06T11:15:02;102044.09;;;12.62;100.00
71638;BME280;59485;43.542;-5.676;2023-04-06T11:17:35;102046.34;;;12.66;100.00
71638;BME280;59485;43.542;-5.676;2023-04-06T11:20:02;102043.91;;;12.71;100.00
71638;BME280;59485;43.542;-5.676;2023-04-06T11:22:28;102043.75;;;12.65;100.00
71638;BME280;59485;43.542;-5.676;2023-04-06T11:25:04;102044.97;;;12.70;100.00
71638;BME280;59485;43.542;-5.676;2023-04-06T11:27:31;102036.34;;;12.73;100.00
71638;BME280;59485;43.542;-5.676;2023-04-06T11:29:59;102038.59;;;12.86;100.00
71638;BME280;59485;43.542;-5.676;2023-04-06T11:32:24;102039.59;;;12.85;100.00
71638;BME280;59485;43.542;-5.676;2023-04-06T11:34:50;102038.59;;;12.86;100.00
71638;BME280;59485;43.542;-5.676;2023-04-06T11:37:16;102046.31;;;12.74;100.00
71638;BME280;59485;43.542;-5.676;2023-04-06T11:39:52;102038.06;;;12.74;100.00
71638;BME280;59485;43.542;-5.676;2023-04-06T11:42:27;102044.75;;;12.80;100.00
71638;BME280;59485;43.542;-5.676;2023-04-06T11:44:57;102051.84;;;12.66;100.00
71638;BME280;59485;43.542;-5.676;2023-04-06T11:47:31;102050.63;;;12.77;100.00
71638;BME280;59485;43.542;-5.676;2023-04-06T11:50:12;102047.16;;;12.91;100.00
71638;BME280;59485;43.542;-5.676;2023-04-06T11:52:40;102050.44;;;12.87;100.00
71638;BME280;59485;43.542;-5.676;2023-04-06T11:55:14;102055.06;;;12.94;100.00
71638;BME280;59485;43.542;-5.676;2023-04-06T11:57:41;102054.03;;;12.95;100.00
71638;BME280;59485;43.542;-5.676;2023-04-06T12:00:08;102052.50;;;12.85;100.00
71638;BME280;59485;43.542;-5.676;2023-04-06T12:02:38;102058.16;;;12.91;100.00
71638;BME280;59485;43.542;-5.676;2023-04-06T12:05:05;102056.81;;;12.95;100.00
71638;BME280;59485;43.542;-5.676;2023-04-06T12:07:32;102059.88;;;13.00;100.00
71638;BME280;59485;43.542;-5.676;2023-04-06T12:10:01;102060.56;;;13.02;100.00
71638;BME280;59485;43.542;-5.676;2023-04-06T12:12:28;102059.88;;;12.92;100.00
71638;BME280;59485;43.542;-5.676;2023-04-06T12:14:54;102063.00;;;13.13;100.00
71638;BME280;59485;43.542;-5.676;2023-04-06T12:17:20;102058.50;;;13.04;100.00
71638;BME280;59485;43.542;-5.676;2023-04-06T12:19:46;102063.81;;;12.98;100.00
71638;BME280;59485;43.542;-5.676;2023-04-06T12:22:11;102062.47;;;12.94;100.00
71638;BME280;59485;43.542;-5.676;2023-04-06T12:24:37;102069.50;;;13.04;100.00
71638;BME280;59485;43.542;-5.676;2023-04-06T12:27:03;102061.28;;;12.96;100.00
71638;BME280;59485;43.542;-5.676;2023-04-06T12:29:28;102070.03;;;13.00;100.00
71638;BME280;59485;43.542;-5.676;2023-04-06T12:31:54;102071.91;;;12.99;100.00
71638;BME280;59485;43.542;-5.676;2023-04-06T12:34:20;102068.47;;;13.05;100.00
71638;BME280;59485;43.542;-5.676;2023-04-06T12:36:45;102070.00;;;13.08;100.00
71638;BME280;59485;43.542;-5.676;2023-04-06T12:39:11;102070.72;;;13.18;100.00
71638;BME280;59485;43.542;-5.676;2023-04-06T12:41:37;102071.25;;;13.13;100.00
71638;BME280;59485;43.542;-5.676;2023-04-06T12:44:05;102072.25;;;13.21;100.00
71638;BME280;59485;43.542;-5.676;2023-04-06T12:46:34;102065.75;;;13.13;100.00